Time;durP1;ratioP1;P1;durP2;ratioP2;P2;SDS_P1;SDS_P2;PMS_P1;PMS_P2;Temp;Humidity;BMP_temperature;BMP_pressure;BME280_temperature;BME280_humidity;BME280_pressure;Samples;Min_cycle;Max_cycle;Signal;HPM_P1;HPM_P2
2023/10/16 00:01:16;;;;;;;;;;;12.00;99.90;;;;;;5091356;28;19912;-75
2023/10/16 00:03:42;;;;;;;;;;;12.00;99.90;;;;;;5089822;28;20368;-74
2023/10/16 00:06:09;;;;;;;;;;;12.00;99.90;;;;;;5092054;28;19962;-75
2023/10/16 00:08:46;;;;;;;;;;;12.10;99.90;;;;;;5088880;28;19912;-74
2023/10/16 00:11:13;;;;;;;;;;;12.00;99.90;;;;;;5072139;28;20007;-74
2023/10/16 00:13:42;;;;;;;;;;;12.00;99.90;;;;;;5089517;28;19919;-75
2023/10/16 00:16:08;;;;;;;;;;;12.10;99.90;;;;;;5093303;28;20009;-74
2023/10/16 00:18:34;;;;;;;;;;;12.10;99.90;;;;;;5088092;28;19948;-75
2023/10/16 00:21:04;;;;;;;;;;;12.10;99.90;;;;;;5093132;28;19909;-74
2023/10/16 00:23:30;;;;;;;;;;;12.10;99.90;;;;;;5088368;28;19908;-75
2023/10/16 00:25:56;;;;;;;;;;;12.10;99.90;;;;;;5092932;28;20417;-75
2023/10/16 00:28:22;;;;;;;;;;;12.00;99.90;;;;;;5088458;28;19968;-75
2023/10/16 00:30:47;;;;;;;;;;;12.00;99.90;;;;;;5092234;28;19961;-75
2023/10/16 00:33:13;;;;;;;;;;;12.00;99.90;;;;;;5089912;28;19970;-75
2023/10/16 00:35:39;;;;;;;;;;;12.00;99.90;;;;;;5093799;28;19912;-75
2023/10/16 00:38:12;;;;;;;;;;;12.00;99.90;;;;;;5090515;28;19908;-76
2023/10/16 00:40:38;;;;;;;;;;;12.00;99.90;;;;;;5093878;28;19908;-75
2023/10/16 00:43:17;;;;;;;;;;;11.90;99.90;;;;;;5090890;28;19913;-75
2023/10/16 00:45:45;;;;;;;;;;;12.00;99.90;;;;;;5091626;28;19951;-75
2023/10/16 00:48:18;;;;;;;;;;;12.00;99.90;;;;;;5090092;28;19912;-75
2023/10/16 00:50:44;;;;;;;;;;;12.00;99.90;;;;;;5090716;28;19919;-75
2023/10/16 00:53:13;;;;;;;;;;;11.90;99.90;;;;;;5091639;28;19908;-75
2023/10/16 00:55:39;;;;;;;;;;;11.90;99.90;;;;;;5089929;28;19916;-75
2023/10/16 00:58:06;;;;;;;;;;;11.90;99.90;;;;;;5091911;28;19982;-75
2023/10/16 01:00:35;;;;;;;;;;;11.90;99.90;;;;;;5089839;28;19912;-75
2023/10/16 01:03:05;;;;;;;;;;;12.00;99.90;;;;;;5092343;28;19962;-75
2023/10/16 01:05:33;;;;;;;;;;;11.90;99.90;;;;;;5088719;28;19908;-75
2023/10/16 01:08:02;;;;;;;;;;;12.00;99.90;;;;;;5092635;28;19916;-75
2023/10/16 01:10:28;;;;;;;;;;;11.90;99.90;;;;;;5088595;28;19967;-74
2023/10/16 01:12:57;;;;;;;;;;;11.90;99.90;;;;;;5092681;28;20396;-75
2023/10/16 01:15:22;;;;;;;;;;;11.90;99.90;;;;;;5089470;28;20016;-74
2023/10/16 01:17:48;;;;;;;;;;;11.80;99.90;;;;;;5093109;28;19947;-74
2023/10/16 01:20:18;;;;;;;;;;;11.80;99.90;;;;;;5088651;28;19939;-74
2023/10/16 01:22:44;;;;;;;;;;;11.70;99.90;;;;;;5093085;28;20398;-75
2023/10/16 01:25:10;;;;;;;;;;;11.70;99.90;;;;;;5088303;28;21320;-74
2023/10/16 01:27:38;;;;;;;;;;;11.70;99.90;;;;;;5084507;28;20364;-75
2023/10/16 01:30:07;;;;;;;;;;;11.60;99.90;;;;;;5086130;28;19947;-75
2023/10/16 01:32:33;;;;;;;;;;;11.60;99.90;;;;;;5092374;28;19918;-75
2023/10/16 01:34:59;;;;;;;;;;;11.60;99.90;;;;;;5087557;28;19955;-75
2023/10/16 01:37:25;;;;;;;;;;;11.50;99.90;;;;;;5090853;28;20307;-75
2023/10/16 01:39:54;;;;;;;;;;;11.50;99.90;;;;;;5089172;28;20379;-75
2023/10/16 01:42:20;;;;;;;;;;;11.40;99.90;;;;;;5092327;28;19916;-75
2023/10/16 01:44:45;;;;;;;;;;;11.30;99.90;;;;;;5088169;28;20288;-75
2023/10/16 01:47:15;;;;;;;;;;;11.30;99.90;;;;;;5081665;28;19915;-75
2023/10/16 01:49:41;;;;;;;;;;;11.30;99.90;;;;;;5085674;28;19914;-75
2023/10/16 01:52:10;;;;;;;;;;;11.20;99.90;;;;;;5089760;28;20780;-75
2023/10/16 01:54:38;;;;;;;;;;;11.20;99.90;;;;;;5088591;28;20403;-75
2023/10/16 01:57:12;;;;;;;;;;;11.20;99.90;;;;;;5090674;28;19919;-75
2023/10/16 01:59:42;;;;;;;;;;;11.10;99.90;;;;;;5089513;28;19958;-75
2023/10/16 02:02:09;;;;;;;;;;;11.10;99.90;;;;;;5089265;28;19916;-75
2023/10/16 02:04:40;;;;;;;;;;;11.10;99.90;;;;;;5091404;28;20360;-75
2023/10/16 02:07:06;;;;;;;;;;;11.10;99.90;;;;;;5085123;28;20388;-75
2023/10/16 02:09:36;;;;;;;;;;;11.00;99.90;;;;;;5081611;28;19916;-75
2023/10/16 02:12:03;;;;;;;;;;;11.00;99.90;;;;;;5078061;28;19955;-75
2023/10/16 02:14:28;;;;;;;;;;;11.00;99.90;;;;;;5078896;28;20065;-75
2023/10/16 02:16:54;;;;;;;;;;;11.00;99.90;;;;;;5081689;28;19947;-75
2023/10/16 02:19:20;;;;;;;;;;;11.00;99.90;;;;;;5084487;28;19944;-76
2023/10/16 02:21:46;;;;;;;;;;;11.00;99.90;;;;;;5083721;28;19963;-76
2023/10/16 02:24:12;;;;;;;;;;;11.00;99.90;;;;;;5067967;28;20307;-76
2023/10/16 02:26:56;;;;;;;;;;;11.00;99.90;;;;;;5078663;28;19913;-76
2023/10/16 02:29:22;;;;;;;;;;;11.00;99.90;;;;;;5079137;28;19923;-75
2023/10/16 02:31:50;;;;;;;;;;;11.10;99.90;;;;;;5076679;28;19909;-76
2023/10/16 02:34:22;;;;;;;;;;;11.10;99.90;;;;;;5077341;28;19913;-76
2023/10/16 02:36:48;;;;;;;;;;;11.10;99.90;;;;;;5079319;28;19908;-76
2023/10/16 02:39:34;;;;;;;;;;;11.10;99.90;;;;;;5079927;28;19915;-75
2023/10/16 02:41:59;;;;;;;;;;;11.10;99.90;;;;;;5092423;28;19922;-75
2023/10/16 02:44:26;;;;;;;;;;;11.10;99.90;;;;;;5089176;28;20288;-75
2023/10/16 02:46:51;;;;;;;;;;;11.10;99.90;;;;;;5092485;28;19920;-75
2023/10/16 02:49:16;;;;;;;;;;;11.10;99.90;;;;;;5088615;28;19912;-75
2023/10/16 02:51:42;;;;;;;;;;;11.10;99.90;;;;;;5091586;28;19908;-75
2023/10/16 02:54:08;;;;;;;;;;;11.10;99.90;;;;;;5088431;28;19909;-76
2023/10/16 02:56:33;;;;;;;;;;;11.10;99.90;;;;;;5078423;28;19908;-75
2023/10/16 02:59:07;;;;;;;;;;;11.10;99.90;;;;;;5089002;28;19954;-75
2023/10/16 03:01:33;;;;;;;;;;;11.10;99.90;;;;;;5085967;28;19935;-75
2023/10/16 03:03:58;;;;;;;;;;;11.10;99.90;;;;;;5077126;28;19934;-74
2023/10/16 03:06:26;;;;;;;;;;;11.10;99.90;;;;;;5077263;28;19908;-75
2023/10/16 03:08:52;;;;;;;;;;;11.20;99.90;;;;;;5085533;28;20436;-75
2023/10/16 03:11:20;;;;;;;;;;;11.10;99.90;;;;;;5079533;28;19936;-75
2023/10/16 03:13:50;;;;;;;;;;;11.10;99.90;;;;;;5086516;28;19920;-76
2023/10/16 03:16:23;;;;;;;;;;;11.10;99.90;;;;;;5072012;28;19919;-75
2023/10/16 03:18:49;;;;;;;;;;;11.20;99.90;;;;;;5086719;28;19909;-75
2023/10/16 03:23:45;;;;;;;;;;;11.20;99.90;;;;;;5085980;28;19972;-75
2023/10/16 03:26:31;;;;;;;;;;;11.20;99.90;;;;;;5089665;28;19912;-74
2023/10/16 03:28:57;;;;;;;;;;;11.20;99.90;;;;;;5089452;28;20018;-75
2023/10/16 03:31:23;;;;;;;;;;;11.30;99.90;;;;;;5088142;28;20003;-75
2023/10/16 03:33:49;;;;;;;;;;;11.30;99.90;;;;;;5088353;28;19955;-75
2023/10/16 03:36:15;;;;;;;;;;;11.20;99.90;;;;;;5088045;28;19908;-75
2023/10/16 03:38:41;;;;;;;;;;;11.20;99.90;;;;;;5088012;28;20273;-75
2023/10/16 03:41:19;;;;;;;;;;;11.20;99.90;;;;;;5088522;28;19975;-75
2023/10/16 03:43:48;;;;;;;;;;;11.10;99.90;;;;;;5091872;28;19955;-75
2023/10/16 03:46:14;;;;;;;;;;;11.10;99.90;;;;;;5087303;28;19908;-75
2023/10/16 03:48:40;;;;;;;;;;;11.10;99.90;;;;;;5070665;28;19912;-75
2023/10/16 03:51:07;;;;;;;;;;;11.10;99.90;;;;;;5086132;28;19908;-75
2023/10/16 03:53:35;;;;;;;;;;;11.10;99.90;;;;;;5070873;28;19912;-74
2023/10/16 03:56:01;;;;;;;;;;;11.00;99.90;;;;;;5084080;28;20364;-75
2023/10/16 03:58:27;;;;;;;;;;;11.00;99.90;;;;;;5089825;28;19912;-75
2023/10/16 04:00:52;;;;;;;;;;;11.00;99.90;;;;;;5083834;28;19915;-75
2023/10/16 04:03:19;;;;;;;;;;;11.00;99.90;;;;;;5091458;28;19916;-75
2023/10/16 04:05:45;;;;;;;;;;;11.00;99.90;;;;;;5084187;28;19909;-75
2023/10/16 04:08:14;;;;;;;;;;;11.00;99.90;;;;;;5089307;28;19919;-75
2023/10/16 04:10:46;;;;;;;;;;;11.00;99.90;;;;;;5082835;28;19923;-75
2023/10/16 04:13:12;;;;;;;;;;;11.00;99.90;;;;;;5088960;28;19908;-74
2023/10/16 04:18:09;;;;;;;;;;;11.10;99.90;;;;;;5089117;28;20057;-75
2023/10/16 04:20:44;;;;;;;;;;;11.10;99.90;;;;;;5085743;28;20384;-74
2023/10/16 04:23:29;;;;;;;;;;;11.10;99.90;;;;;;5085622;28;20019;-74
2023/10/16 04:29:22;;;;;;;;;;;11.20;99.90;;;;;;5083279;28;19974;-76
2023/10/16 04:31:44;;;;;;;;;;;11.20;99.90;;;;;;5076121;28;20377;-75
2023/10/16 04:36:54;;;;;;;;;;;11.10;99.90;;;;;;5086921;28;19917;-75
2023/10/16 04:45:24;;;;;;;;;;;11.20;99.90;;;;;;5085405;28;19931;-75
2023/10/16 04:50:29;;;;;;;;;;;11.20;99.90;;;;;;5091187;28;19960;-75
2023/10/16 05:11:27;;;;;;;;;;;11.30;99.90;;;;;;5089675;28;19957;-74
2023/10/16 06:16:20;;;;;;;;;;;11.20;99.90;;;;;;5098704;28;19959;-74
2023/10/16 06:18:47;;;;;;;;;;;11.20;99.90;;;;;;5096532;28;19912;-75
2023/10/16 06:21:15;;;;;;;;;;;11.20;99.90;;;;;;5098415;28;19962;-74
2023/10/16 06:23:42;;;;;;;;;;;11.20;99.90;;;;;;5096754;28;19918;-74
2023/10/16 06:26:08;;;;;;;;;;;11.20;99.90;;;;;;5095856;28;19913;-75
2023/10/16 06:28:34;;;;;;;;;;;11.30;99.90;;;;;;5095815;28;20015;-74
2023/10/16 06:31:00;;;;;;;;;;;11.20;99.90;;;;;;5096479;28;19966;-75
2023/10/16 06:33:25;;;;;;;;;;;11.20;99.90;;;;;;5088850;28;20015;-75
2023/10/16 06:35:52;;;;;;;;;;;11.30;99.90;;;;;;5093614;28;19919;-75
2023/10/16 06:38:21;;;;;;;;;;;11.30;99.90;;;;;;5082671;28;19912;-75
2023/10/16 06:40:47;;;;;;;;;;;11.40;99.90;;;;;;5091034;28;20296;-74
2023/10/16 06:43:16;;;;;;;;;;;11.40;99.90;;;;;;5081415;28;19923;-75
2023/10/16 06:45:42;;;;;;;;;;;11.50;99.90;;;;;;5092257;28;19919;-74
2023/10/16 06:48:08;;;;;;;;;;;11.50;99.90;;;;;;5091248;28;20698;-74
2023/10/16 06:50:40;;;;;;;;;;;11.60;99.90;;;;;;5090006;28;19912;-74
2023/10/16 06:53:05;;;;;;;;;;;11.60;99.90;;;;;;5083694;28;19979;-75
2023/10/16 06:55:31;;;;;;;;;;;11.60;99.90;;;;;;5087698;28;20343;-76
2023/10/16 06:57:56;;;;;;;;;;;11.60;99.90;;;;;;5083529;28;19919;-75
2023/10/16 07:00:22;;;;;;;;;;;11.70;99.90;;;;;;5076470;28;19942;-75
2023/10/16 07:02:54;;;;;;;;;;;11.70;99.90;;;;;;5085281;28;19909;-76
2023/10/16 07:05:22;;;;;;;;;;;11.80;99.90;;;;;;5090141;28;19912;-75
2023/10/16 07:07:48;;;;;;;;;;;11.80;99.90;;;;;;5097100;28;19937;-76
2023/10/16 07:10:14;;;;;;;;;;;11.80;99.90;;;;;;5096136;28;19999;-75
2023/10/16 07:15:29;;;;;;;;;;;11.90;99.90;;;;;;5096450;28;19938;-76
2023/10/16 07:18:14;;;;;;;;;;;12.00;99.90;;;;;;5097679;28;19912;-75
2023/10/16 07:20:55;;;;;;;;;;;12.00;99.90;;;;;;5098673;28;19999;-76
2023/10/16 07:23:20;;;;;;;;;;;12.10;99.90;;;;;;5096942;28;19908;-76
2023/10/16 07:25:54;;;;;;;;;;;12.10;99.90;;;;;;5097805;28;20260;-76
2023/10/16 07:28:20;;;;;;;;;;;12.10;99.90;;;;;;5096806;28;19997;-76
2023/10/16 07:30:46;;;;;;;;;;;12.20;99.90;;;;;;5097645;28;19908;-76
2023/10/16 07:33:14;;;;;;;;;;;12.30;99.90;;;;;;5095253;28;19915;-76
2023/10/16 07:35:46;;;;;;;;;;;12.40;99.90;;;;;;5097022;28;19912;-76
2023/10/16 07:38:12;;;;;;;;;;;12.50;99.90;;;;;;5095774;28;20425;-76
2023/10/16 07:40:38;;;;;;;;;;;12.60;99.90;;;;;;5082697;28;19913;-76
2023/10/16 07:43:05;;;;;;;;;;;12.70;99.90;;;;;;5076810;28;19912;-76
2023/10/16 07:45:32;;;;;;;;;;;12.90;99.90;;;;;;5093525;28;19915;-75
2023/10/16 07:48:07;;;;;;;;;;;13.00;99.90;;;;;;5087756;28;19964;-75
2023/10/16 07:50:38;;;;;;;;;;;13.10;99.90;;;;;;5072222;28;19919;-76
2023/10/16 07:53:06;;;;;;;;;;;13.10;99.90;;;;;;5076136;28;19920;-75
2023/10/16 07:55:40;;;;;;;;;;;13.20;99.90;;;;;;5078345;28;19920;-75
2023/10/16 07:58:15;;;;;;;;;;;13.30;99.90;;;;;;5077461;28;20392;-75
2023/10/16 08:00:58;;;;;;;;;;;13.40;99.90;;;;;;5075284;28;19916;-75
2023/10/16 08:03:23;;;;;;;;;;;13.50;99.90;;;;;;5075650;28;19926;-75
2023/10/16 08:05:49;;;;;;;;;;;13.60;99.90;;;;;;5077907;28;20003;-75
2023/10/16 08:08:15;;;;;;;;;;;13.70;99.90;;;;;;5079677;28;20015;-75
2023/10/16 08:10:43;;;;;;;;;;;13.90;99.90;;;;;;5076194;28;19913;-75
2023/10/16 08:13:12;;;;;;;;;;;13.80;99.90;;;;;;5078429;28;19917;-75
2023/10/16 08:15:51;;;;;;;;;;;13.90;99.90;;;;;;5076637;28;19908;-75
2023/10/16 08:18:25;;;;;;;;;;;14.00;99.90;;;;;;5075657;28;19915;-75
2023/10/16 08:21:00;;;;;;;;;;;14.10;99.90;;;;;;5076617;28;19908;-75
2023/10/16 08:23:35;;;;;;;;;;;14.10;99.90;;;;;;5078229;28;19919;-75
2023/10/16 08:26:14;;;;;;;;;;;14.10;99.90;;;;;;5081129;28;19974;-75
2023/10/16 08:28:44;;;;;;;;;;;14.10;99.90;;;;;;5079025;28;20706;-75
2023/10/16 08:31:23;;;;;;;;;;;14.20;99.90;;;;;;5075508;28;19912;-75
2023/10/16 08:33:54;;;;;;;;;;;14.20;99.90;;;;;;5073818;28;20307;-75
2023/10/16 08:36:20;;;;;;;;;;;14.30;99.90;;;;;;5080813;28;20639;-76
2023/10/16 08:38:52;;;;;;;;;;;14.40;99.90;;;;;;5075711;28;19963;-75
2023/10/16 08:41:42;;;;;;;;;;;14.60;99.90;;;;;;5078151;28;19998;-74
2023/10/16 08:44:24;;;;;;;;;;;14.70;99.90;;;;;;5077633;28;19962;-75
2023/10/16 08:47:32;;;;;;;;;;;14.90;99.90;;;;;;5072679;28;19909;-75
2023/10/16 08:49:39;;;;;;;;;;;15.00;99.90;;;;;;5076539;28;19912;-75
2023/10/16 08:52:06;;;;;;;;;;;15.30;99.90;;;;;;5075836;28;19916;-74
2023/10/16 08:57:16;;;;;;;;;;;15.50;99.90;;;;;;5075653;28;19934;-75
2023/10/16 08:59:46;;;;;;;;;;;15.60;99.90;;;;;;5077897;28;19919;-75
2023/10/16 09:02:13;;;;;;;;;;;15.70;99.90;;;;;;5075100;28;19917;-76
2023/10/16 09:04:41;;;;;;;;;;;16.00;99.90;;;;;;5081019;28;19962;-76
2023/10/16 09:07:07;;;;;;;;;;;16.20;99.90;;;;;;5077730;28;20011;-76
2023/10/16 09:09:32;;;;;;;;;;;16.30;99.90;;;;;;5077274;28;19952;-75
2023/10/16 09:12:10;;;;;;;;;;;16.40;99.90;;;;;;5079426;28;19908;-76
2023/10/16 09:14:37;;;;;;;;;;;16.50;99.90;;;;;;5078335;28;20292;-75
2023/10/16 09:17:06;;;;;;;;;;;16.40;99.90;;;;;;5073605;28;19977;-74
2023/10/16 09:19:34;;;;;;;;;;;16.40;99.90;;;;;;5081037;28;19965;-74
2023/10/16 09:22:04;;;;;;;;;;;16.60;99.90;;;;;;5073750;28;19909;-74
2023/10/16 09:24:30;;;;;;;;;;;16.80;99.90;;;;;;5078739;28;19919;-74
2023/10/16 09:26:56;;;;;;;;;;;16.90;99.90;;;;;;5077962;28;20440;-74
2023/10/16 09:29:25;;;;;;;;;;;17.10;99.90;;;;;;5076710;28;19952;-73
2023/10/16 09:31:51;;;;;;;;;;;17.10;99.90;;;;;;5074912;28;19915;-74
2023/10/16 09:34:21;;;;;;;;;;;17.20;99.90;;;;;;5077892;28;19913;-75
2023/10/16 09:36:48;;;;;;;;;;;17.30;99.90;;;;;;5071241;28;19909;-75
2023/10/16 09:39:17;;;;;;;;;;;17.30;99.90;;;;;;5079877;28;19948;-75
2023/10/16 09:41:46;;;;;;;;;;;17.30;99.90;;;;;;5073429;28;19917;-75
2023/10/16 09:44:36;;;;;;;;;;;17.20;99.90;;;;;;5078809;28;19920;-75
2023/10/16 09:47:25;;;;;;;;;;;17.30;99.90;;;;;;5078466;28;19920;-73
2023/10/16 09:49:48;;;;;;;;;;;17.40;99.90;;;;;;5082147;28;19969;-73
2023/10/16 09:52:19;;;;;;;;;;;17.70;99.90;;;;;;5078153;28;19912;-76
2023/10/16 09:54:45;;;;;;;;;;;17.90;99.90;;;;;;5082783;28;19913;-75
2023/10/16 09:57:13;;;;;;;;;;;18.10;99.90;;;;;;5082528;28;19913;-74
2023/10/16 09:59:38;;;;;;;;;;;18.30;99.90;;;;;;5079772;28;20550;-73
2023/10/16 10:02:08;;;;;;;;;;;18.50;99.90;;;;;;5079125;28;19912;-73
2023/10/16 10:04:35;;;;;;;;;;;18.40;99.90;;;;;;5082018;28;19943;-77
2023/10/16 10:07:11;;;;;;;;;;;18.40;99.90;;;;;;5080459;28;19963;-76
2023/10/16 10:09:41;;;;;;;;;;;18.40;99.90;;;;;;5078508;28;19923;-76
2023/10/16 10:12:42;;;;;;;;;;;18.70;99.90;;;;;;5080245;28;19908;-75
2023/10/16 10:15:16;;;;;;;;;;;19.00;99.90;;;;;;5075804;28;19909;-75
2023/10/16 10:17:43;;;;;;;;;;;19.00;99.90;;;;;;5077236;28;19960;-76
2023/10/16 10:20:10;;;;;;;;;;;19.00;99.90;;;;;;5075958;28;20008;-75
2023/10/16 10:22:37;;;;;;;;;;;19.10;99.90;;;;;;5079237;28;19943;-76
2023/10/16 10:25:09;;;;;;;;;;;19.30;99.90;;;;;;5078948;28;19917;-75
2023/10/16 10:27:38;;;;;;;;;;;19.50;99.90;;;;;;5080062;28;19934;-76
2023/10/16 10:30:05;;;;;;;;;;;19.40;99.90;;;;;;5078860;28;19935;-76
2023/10/16 10:32:32;;;;;;;;;;;19.40;99.90;;;;;;5078281;28;20373;-76
2023/10/16 10:35:16;;;;;;;;;;;19.30;99.90;;;;;;5078598;28;19915;-77
2023/10/16 10:37:45;;;;;;;;;;;19.40;99.90;;;;;;5081649;28;19916;-76
2023/10/16 10:40:22;;;;;;;;;;;19.50;99.90;;;;;;5076813;28;19916;-75
2023/10/16 10:42:53;;;;;;;;;;;19.70;99.90;;;;;;5075232;28;19919;-78
2023/10/16 10:45:33;;;;;;;;;;;19.90;99.90;;;;;;5072919;28;19919;-75
2023/10/16 10:48:03;;;;;;;;;;;20.00;99.90;;;;;;5075848;28;19928;-76
2023/10/16 10:50:29;;;;;;;;;;;20.30;99.90;;;;;;5078319;28;19923;-76
2023/10/16 10:52:55;;;;;;;;;;;20.40;99.90;;;;;;5076885;28;19909;-75
2023/10/16 10:55:25;;;;;;;;;;;20.60;99.90;;;;;;5080145;28;19912;-76
2023/10/16 10:57:58;;;;;;;;;;;20.60;99.90;;;;;;5078489;28;19908;-76
2023/10/16 11:03:08;;;;;;;;;;;20.70;99.90;;;;;;5079052;28;20538;-77
2023/10/16 11:05:34;;;;;;;;;;;20.60;99.90;;;;;;5075355;28;19948;-76
2023/10/16 11:10:41;;;;;;;;;;;20.40;99.90;;;;;;5077055;28;19919;-77
2023/10/16 11:13:07;;;;;;;;;;;20.50;99.70;;;;;;5079278;28;19912;-76
2023/10/16 11:15:32;;;;;;;;;;;20.50;99.90;;;;;;5074511;28;19951;-77
2023/10/16 11:18:06;;;;;;;;;;;20.50;99.10;;;;;;5079586;28;20339;-76
2023/10/16 11:20:36;;;;;;;;;;;20.50;99.90;;;;;;5072979;28;19908;-76
2023/10/16 11:23:12;;;;;;;;;;;20.50;99.90;;;;;;5078312;28;19955;-75
2023/10/16 11:25:50;;;;;;;;;;;20.50;98.50;;;;;;5077944;28;19909;-75
2023/10/16 11:28:20;;;;;;;;;;;20.20;98.80;;;;;;5079987;28;19974;-76
2023/10/16 11:30:49;;;;;;;;;;;20.10;98.70;;;;;;5082299;28;19916;-76
2023/10/16 11:33:30;;;;;;;;;;;20.10;99.00;;;;;;5080490;28;19915;-77
2023/10/16 11:36:03;;;;;;;;;;;20.10;99.00;;;;;;5076316;28;19916;-76
2023/10/16 11:38:29;;;;;;;;;;;20.10;98.00;;;;;;5079231;28;19913;-78
2023/10/16 11:41:04;;;;;;;;;;;20.30;98.90;;;;;;5078430;28;19908;-76
2023/10/16 11:43:31;;;;;;;;;;;20.50;98.50;;;;;;5081911;28;19912;-75
2023/10/16 11:45:57;;;;;;;;;;;20.50;97.80;;;;;;5080057;28;19918;-75
2023/10/16 11:50:58;;;;;;;;;;;20.60;97.80;;;;;;5076894;28;19913;-76
2023/10/16 11:53:23;;;;;;;;;;;20.70;98.50;;;;;;5074662;28;19908;-75
2023/10/16 11:55:50;;;;;;;;;;;20.80;97.80;;;;;;5077914;28;19920;-76
2023/10/16 11:58:16;;;;;;;;;;;20.90;98.40;;;;;;5078102;28;19909;-76
2023/10/16 12:00:48;;;;;;;;;;;20.90;97.00;;;;;;5074827;28;19912;-76
2023/10/16 12:03:14;;;;;;;;;;;21.00;98.00;;;;;;5085285;28;19915;-77
2023/10/16 12:05:42;;;;;;;;;;;21.00;97.40;;;;;;5076105;28;19991;-78
2023/10/16 12:08:08;;;;;;;;;;;21.10;97.50;;;;;;5079004;28;20027;-76
2023/10/16 12:10:34;;;;;;;;;;;21.00;97.50;;;;;;5080881;28;19955;-77
2023/10/16 12:13:01;;;;;;;;;;;21.00;97.60;;;;;;5074282;28;19915;-76
2023/10/16 12:15:26;;;;;;;;;;;21.20;97.00;;;;;;5080322;28;19930;-76
2023/10/16 12:17:55;;;;;;;;;;;21.50;97.10;;;;;;5079313;28;19908;-79
2023/10/16 12:20:27;;;;;;;;;;;21.80;96.20;;;;;;5078477;28;19962;-76
2023/10/16 12:22:53;;;;;;;;;;;21.80;96.30;;;;;;5076756;28;19909;-75
2023/10/16 12:25:21;;;;;;;;;;;21.60;95.40;;;;;;5080042;28;20030;-77
2023/10/16 12:27:53;;;;;;;;;;;21.50;95.90;;;;;;5075700;28;19938;-75
2023/10/16 12:30:19;;;;;;;;;;;21.40;96.40;;;;;;5077247;28;19917;-74
2023/10/16 12:32:45;;;;;;;;;;;21.20;96.90;;;;;;5078233;28;20376;-75
2023/10/16 12:35:12;;;;;;;;;;;21.20;97.00;;;;;;5077940;28;20193;-76
2023/10/16 12:37:41;;;;;;;;;;;21.20;97.30;;;;;;5076116;28;19913;-78
2023/10/16 12:42:53;;;;;;;;;;;21.20;96.60;;;;;;5076756;28;19916;-75
2023/10/16 12:45:20;;;;;;;;;;;21.30;97.50;;;;;;5075334;28;19912;-76
2023/10/16 12:47:46;;;;;;;;;;;21.10;97.40;;;;;;5077073;28;20011;-75
2023/10/16 12:50:11;;;;;;;;;;;21.10;97.90;;;;;;5074075;28;19956;-76
2023/10/16 12:52:38;;;;;;;;;;;20.90;98.50;;;;;;5076555;28;19917;-77
2023/10/16 12:55:09;;;;;;;;;;;20.70;98.30;;;;;;5075752;28;19913;-76
2023/10/16 12:57:34;;;;;;;;;;;20.70;98.00;;;;;;5073214;28;19918;-76
2023/10/16 13:00:00;;;;;;;;;;;20.80;98.40;;;;;;5079342;28;19963;-76
2023/10/16 13:02:28;;;;;;;;;;;20.90;97.60;;;;;;5076240;28;19947;-76
2023/10/16 13:04:55;;;;;;;;;;;20.90;97.50;;;;;;5074001;28;19908;-78
2023/10/16 13:07:22;;;;;;;;;;;20.90;97.50;;;;;;5076254;28;19916;-77
2023/10/16 13:09:47;;;;;;;;;;;21.00;97.40;;;;;;5077654;28;20431;-77
2023/10/16 13:12:13;;;;;;;;;;;21.20;97.50;;;;;;5073700;28;20006;-78
2023/10/16 13:14:39;;;;;;;;;;;21.20;96.80;;;;;;5074273;28;19913;-77
2023/10/16 13:17:08;;;;;;;;;;;21.10;96.00;;;;;;5071547;28;19965;-77
2023/10/16 13:19:34;;;;;;;;;;;21.10;96.90;;;;;;5080609;28;20300;-76
2023/10/16 13:22:07;;;;;;;;;;;21.00;96.80;;;;;;5077086;28;19917;-76
2023/10/16 13:24:34;;;;;;;;;;;20.90;97.00;;;;;;5075133;28;19960;-76
2023/10/16 13:26:59;;;;;;;;;;;20.90;97.00;;;;;;5078507;28;19924;-76
2023/10/16 13:29:27;;;;;;;;;;;20.80;96.80;;;;;;5070593;28;20154;-75
2023/10/16 13:31:56;;;;;;;;;;;20.70;96.60;;;;;;5076808;28;19921;-76
2023/10/16 13:34:21;;;;;;;;;;;20.80;96.70;;;;;;5076214;28;19908;-77
2023/10/16 13:37:00;;;;;;;;;;;20.90;96.80;;;;;;5074916;28;19923;-76
2023/10/16 13:39:25;;;;;;;;;;;21.00;96.90;;;;;;5078202;28;19917;-76
2023/10/16 13:41:51;;;;;;;;;;;21.20;97.00;;;;;;5077663;28;19909;-76
2023/10/16 13:44:19;;;;;;;;;;;21.30;96.10;;;;;;5076553;28;20383;-76
2023/10/16 13:46:51;;;;;;;;;;;21.20;96.10;;;;;;5077338;28;20292;-79
2023/10/16 13:49:18;;;;;;;;;;;21.10;96.60;;;;;;5077795;28;19965;-79
2023/10/16 13:51:44;;;;;;;;;;;21.00;96.70;;;;;;5072777;28;19999;-78
2023/10/16 13:54:12;;;;;;;;;;;20.90;96.80;;;;;;5081692;28;19953;-77
2023/10/16 13:56:38;;;;;;;;;;;20.90;97.00;;;;;;5076580;28;20243;-78
2023/10/16 13:59:05;;;;;;;;;;;20.80;97.30;;;;;;5074918;28;19915;-76
2023/10/16 14:01:31;;;;;;;;;;;20.80;97.50;;;;;;5076724;28;19962;-76
2023/10/16 14:03:58;;;;;;;;;;;21.00;97.70;;;;;;5077298;28;19913;-76
2023/10/16 14:06:26;;;;;;;;;;;21.20;97.50;;;;;;5075104;28;20454;-75
2023/10/16 14:08:51;;;;;;;;;;;21.30;97.70;;;;;;5078074;28;19927;-78
2023/10/16 14:11:17;;;;;;;;;;;21.40;97.90;;;;;;5077957;28;19908;-77
2023/10/16 14:13:43;;;;;;;;;;;21.60;98.00;;;;;;5079229;28;19917;-77
2023/10/16 14:18:34;;;;;;;;;;;21.60;98.20;;;;;;5078499;28;19916;-79
2023/10/16 14:21:06;;;;;;;;;;;21.70;98.80;;;;;;5079709;28;19919;-76
2023/10/16 14:23:32;;;;;;;;;;;21.50;98.40;;;;;;5074881;28;19913;-75
2023/10/16 14:25:58;;;;;;;;;;;21.40;99.00;;;;;;5074891;28;19916;-76
2023/10/16 14:28:34;;;;;;;;;;;21.40;99.20;;;;;;5080936;28;19921;-76
2023/10/16 14:31:01;;;;;;;;;;;21.60;99.10;;;;;;5076330;28;19922;-77
2023/10/16 14:33:30;;;;;;;;;;;21.50;98.70;;;;;;5078076;28;19916;-75
2023/10/16 14:36:00;;;;;;;;;;;21.40;99.50;;;;;;5082799;28;20288;-78
2023/10/16 14:38:27;;;;;;;;;;;21.40;99.90;;;;;;5079189;28;19909;-74
2023/10/16 14:40:55;;;;;;;;;;;21.20;99.90;;;;;;5080399;28;19912;-78
2023/10/16 14:43:24;;;;;;;;;;;21.10;99.90;;;;;;5082883;28;19916;-77
2023/10/16 14:45:53;;;;;;;;;;;21.00;99.90;;;;;;5079100;28;19916;-75
2023/10/16 14:48:20;;;;;;;;;;;20.90;99.90;;;;;;5077022;28;19913;-78
2023/10/16 14:50:45;;;;;;;;;;;20.90;99.90;;;;;;5076712;28;19917;-75
2023/10/16 14:53:12;;;;;;;;;;;20.80;99.90;;;;;;5081375;28;20321;-76
2023/10/16 14:55:39;;;;;;;;;;;20.70;99.90;;;;;;5077885;28;20493;-75
2023/10/16 14:58:05;;;;;;;;;;;20.60;99.90;;;;;;5081253;28;20011;-75
2023/10/16 15:00:41;;;;;;;;;;;20.50;99.90;;;;;;5078404;28;19956;-75
2023/10/16 15:03:10;;;;;;;;;;;20.40;99.90;;;;;;5078252;28;19913;-76
2023/10/16 15:05:46;;;;;;;;;;;20.30;99.90;;;;;;5077403;28;19908;-75
2023/10/16 15:08:12;;;;;;;;;;;20.30;99.90;;;;;;5075962;28;19916;-75
2023/10/16 15:10:44;;;;;;;;;;;20.30;99.90;;;;;;5082261;28;19913;-73
2023/10/16 15:13:12;;;;;;;;;;;20.30;99.90;;;;;;5078031;28;19916;-76
2023/10/16 15:15:42;;;;;;;;;;;20.30;99.90;;;;;;5076268;28;19908;-76
2023/10/16 15:18:09;;;;;;;;;;;20.20;99.90;;;;;;5080768;28;20017;-75
2023/10/16 15:20:35;;;;;;;;;;;20.20;99.90;;;;;;5079685;28;19991;-77
2023/10/16 15:23:03;;;;;;;;;;;20.20;99.90;;;;;;5076869;28;20325;-76
2023/10/16 15:25:29;;;;;;;;;;;20.30;99.90;;;;;;5079552;28;20296;-79
2023/10/16 15:27:55;;;;;;;;;;;20.20;99.90;;;;;;5077566;28;19920;-76
2023/10/16 15:30:20;;;;;;;;;;;20.20;99.90;;;;;;5078216;28;19915;-76
2023/10/16 15:32:46;;;;;;;;;;;20.30;99.90;;;;;;5077797;28;20011;-75
2023/10/16 15:35:14;;;;;;;;;;;20.30;99.90;;;;;;5074708;28;19920;-76
2023/10/16 15:37:40;;;;;;;;;;;20.20;99.90;;;;;;5082386;28;20412;-76
2023/10/16 15:40:07;;;;;;;;;;;20.30;99.90;;;;;;5076788;28;20292;-75
2023/10/16 15:42:32;;;;;;;;;;;20.30;99.90;;;;;;5074760;28;20473;-75
2023/10/16 15:44:59;;;;;;;;;;;20.30;99.90;;;;;;5080609;28;19912;-74
2023/10/16 15:47:26;;;;;;;;;;;20.20;99.90;;;;;;5077152;28;19909;-74
2023/10/16 15:49:52;;;;;;;;;;;20.10;99.90;;;;;;5079971;28;19916;-76
2023/10/16 15:52:18;;;;;;;;;;;20.00;99.90;;;;;;5075414;28;19915;-76
2023/10/16 15:54:44;;;;;;;;;;;20.00;99.90;;;;;;5074919;28;19920;-75
2023/10/16 15:57:11;;;;;;;;;;;19.90;99.90;;;;;;5079595;28;19916;-83
2023/10/16 15:59:37;;;;;;;;;;;19.80;99.90;;;;;;5076647;28;20338;-76
2023/10/16 16:02:05;;;;;;;;;;;19.80;99.90;;;;;;5075896;28;19909;-74
2023/10/16 16:04:30;;;;;;;;;;;19.80;99.90;;;;;;5080643;28;19923;-77
2023/10/16 16:07:01;;;;;;;;;;;19.70;99.90;;;;;;5077701;28;19908;-74
2023/10/16 16:09:29;;;;;;;;;;;19.70;99.90;;;;;;5074108;28;19938;-75
2023/10/16 16:11:55;;;;;;;;;;;19.60;99.90;;;;;;5079186;28;19937;-73
2023/10/16 16:14:21;;;;;;;;;;;19.60;99.90;;;;;;5077785;28;19937;-74
2023/10/16 16:16:50;;;;;;;;;;;19.50;99.90;;;;;;5079036;28;19908;-75
2023/10/16 16:19:15;;;;;;;;;;;19.50;99.90;;;;;;5081460;28;19913;-74
2023/10/16 16:21:41;;;;;;;;;;;19.40;99.90;;;;;;5078219;28;19920;-75
2023/10/16 16:24:07;;;;;;;;;;;19.40;99.90;;;;;;5081181;28;19908;-75